CMP352 MPTO-MDPC
Flight info
| Callsign | CMP352 |
|---|---|
| Flight time | 2h 12m |
| Altitude | 37000 |
| Route | EGETA3B EGETA DCT AGUJA A319 ERIKO UM597 PALAS PALAS2B |
| Aircraft | B738/M-SDE2E3FGHIRWXY/LB1 |
Departure
| Time | 2026-04-28 19:48 |
|---|---|
| Airport | Tocumen International Airport (MPTO) |
Arrival
| Time | 2026-04-28 22:00 |
|---|---|
| Airport | Punta Cana International Airport (MDPC) |
| Time | Latitude | Longitude | Altitude | Speed | Heading |
|---|---|---|---|---|---|
| 2026-04-28 19:31 | 9.06978 | -79.38543 | 29 ft | 0 kts | 307° |
| 2026-04-28 19:40 | 9.06975 | -79.38539 | 29 ft | 3 kts | 306° |
| 2026-04-28 19:40 | 9.06960 | -79.38517 | 29 ft | 4 kts | 301° |
| 2026-04-28 19:40 | 9.06946 | -79.38493 | 29 ft | 4 kts | 299° |
| 2026-04-28 19:40 | 9.06932 | -79.38470 | 29 ft | 4 kts | 311° |
| 2026-04-28 19:41 | 9.06917 | -79.38457 | 29 ft | 0 kts | 346° |
| 2026-04-28 19:44 | 9.06919 | -79.38458 | 29 ft | 1 kts | 346° |
| 2026-04-28 19:44 | 9.06939 | -79.38461 | 29 ft | 5 kts | 355° |
| 2026-04-28 19:44 | 9.06987 | -79.38448 | 29 ft | 9 kts | 26° |
| 2026-04-28 19:44 | 9.07056 | -79.38411 | 29 ft | 13 kts | 28° |
| 2026-04-28 19:45 | 9.07143 | -79.38363 | 29 ft | 14 kts | 30° |
| 2026-04-28 19:45 | 9.07234 | -79.38380 | 30 ft | 16 kts | 306° |
| 2026-04-28 19:45 | 9.07297 | -79.38479 | 31 ft | 17 kts | 300° |
| 2026-04-28 19:45 | 9.07347 | -79.38568 | 36 ft | 13 kts | 302° |
| 2026-04-28 19:46 | 9.07362 | -79.38594 | 41 ft | 0 kts | 301° |
| 2026-04-28 19:46 | 9.07370 | -79.38607 | 43 ft | 6 kts | 301° |
| 2026-04-28 19:46 | 9.07418 | -79.38643 | 47 ft | 11 kts | 358° |
| 2026-04-28 19:47 | 9.07504 | -79.38598 | 48 ft | 29 kts | 31° |
| 2026-04-28 19:47 | 9.07923 | -79.38347 | 47 ft | 110 kts | 31° |
| 2026-04-28 19:47 | 9.08792 | -79.37823 | 102 ft | 174 kts | 29° |
| 2026-04-28 19:47 | 9.09908 | -79.37102 | 674 ft | 200 kts | 31° |
| 2026-04-28 19:48 | 9.11103 | -79.36243 | 1346 ft | 217 kts | 36° |
| 2026-04-28 19:48 | 9.12276 | -79.35297 | 2333 ft | 215 kts | 36° |
| 2026-04-28 19:48 | 9.13507 | -79.34337 | 2644 ft | 237 kts | 34° |
| 2026-04-28 19:48 | 9.14935 | -79.33227 | 2499 ft | 278 kts | 37° |
| 2026-04-28 19:49 | 9.16469 | -79.31986 | 3287 ft | 280 kts | 37° |
| 2026-04-28 19:49 | 9.17948 | -79.30785 | 4524 ft | 265 kts | 37° |
| 2026-04-28 19:49 | 9.19339 | -79.29658 | 5629 ft | 253 kts | 37° |
| 2026-04-28 19:50 | 9.20226 | -79.28944 | 6214 ft | 253 kts | 38° |
| 2026-04-28 19:50 | 9.21625 | -79.27824 | 6837 ft | 262 kts | 37° |
| 2026-04-28 19:50 | 9.23076 | -79.26667 | 7470 ft | 269 kts | 38° |
| 2026-04-28 19:51 | 9.24576 | -79.25473 | 8078 ft | 277 kts | 38° |
| 2026-04-28 19:51 | 9.26100 | -79.24262 | 8846 ft | 278 kts | 38° |
| 2026-04-28 19:51 | 9.27631 | -79.23046 | 9561 ft | 283 kts | 38° |
| 2026-04-28 19:51 | 9.29198 | -79.21803 | 10183 ft | 289 kts | 39° |
| 2026-04-28 19:52 | 9.30819 | -79.20516 | 10575 ft | 305 kts | 39° |
| 2026-04-28 19:52 | 9.32553 | -79.19140 | 10733 ft | 328 kts | 39° |
| 2026-04-28 19:52 | 9.34383 | -79.17688 | 11097 ft | 340 kts | 39° |
| 2026-04-28 19:52 | 9.36262 | -79.16199 | 11639 ft | 344 kts | 39° |
| 2026-04-28 19:53 | 9.38149 | -79.14703 | 11887 ft | 344 kts | 39° |
| 2026-04-28 19:53 | 9.40034 | -79.13207 | 12018 ft | 347 kts | 39° |
| 2026-04-28 19:53 | 9.41951 | -79.11687 | 12021 ft | 351 kts | 39° |
| 2026-04-28 19:53 | 9.43871 | -79.10164 | 12014 ft | 349 kts | 39° |
| 2026-04-28 19:54 | 9.45135 | -79.09161 | 12021 ft | 348 kts | 39° |
| 2026-04-28 19:54 | 9.47031 | -79.07653 | 12014 ft | 346 kts | 40° |
| 2026-04-28 19:54 | 9.48816 | -79.05979 | 12158 ft | 353 kts | 46° |
| 2026-04-28 19:54 | 9.49388 | -79.05376 | 12353 ft | 353 kts | 47° |
| 2026-04-28 19:55 | 9.50529 | -79.04128 | 12796 ft | 354 kts | 49° |
| 2026-04-28 19:55 | 9.52184 | -79.02270 | 13508 ft | 355 kts | 49° |
| 2026-04-28 19:55 | 9.53840 | -79.00403 | 13969 ft | 361 kts | 49° |
| 2026-04-28 19:56 | 9.55533 | -78.98506 | 14498 ft | 364 kts | 49° |
| 2026-04-28 19:56 | 9.57250 | -78.96599 | 15026 ft | 367 kts | 48° |
| 2026-04-28 19:56 | 9.58990 | -78.94677 | 15485 ft | 373 kts | 48° |
| 2026-04-28 19:56 | 9.60758 | -78.92735 | 15969 ft | 376 kts | 48° |
| 2026-04-28 19:57 | 9.62544 | -78.90780 | 16469 ft | 380 kts | 47° |
| 2026-04-28 19:57 | 9.64346 | -78.88811 | 16943 ft | 383 kts | 47° |
| 2026-04-28 19:57 | 9.66172 | -78.86817 | 17418 ft | 387 kts | 47° |
| 2026-04-28 19:57 | 9.68012 | -78.84809 | 17879 ft | 391 kts | 47° |
| 2026-04-28 19:58 | 9.69848 | -78.82805 | 18319 ft | 394 kts | 47° |
| 2026-04-28 19:58 | 9.71722 | -78.80760 | 18721 ft | 397 kts | 47° |
| 2026-04-28 19:58 | 9.73613 | -78.78696 | 19117 ft | 400 kts | 47° |
| 2026-04-28 19:58 | 9.75510 | -78.76625 | 19499 ft | 404 kts | 47° |
| 2026-04-28 19:59 | 9.77428 | -78.74530 | 19833 ft | 406 kts | 47° |
| 2026-04-28 19:59 | 9.79350 | -78.72431 | 19904 ft | 407 kts | 47° |
| 2026-04-28 19:59 | 9.81297 | -78.70304 | 20202 ft | 411 kts | 47° |
| 2026-04-28 19:59 | 9.81929 | -78.69612 | 20358 ft | 412 kts | 47° |
| 2026-04-28 20:00 | 9.83165 | -78.68262 | 20649 ft | 412 kts | 47° |
| 2026-04-28 20:00 | 9.85102 | -78.66146 | 20985 ft | 416 kts | 47° |
| 2026-04-28 20:00 | 9.87104 | -78.63957 | 21359 ft | 419 kts | 47° |
| 2026-04-28 20:01 | 9.89069 | -78.61809 | 21759 ft | 421 kts | 47° |
| 2026-04-28 20:01 | 9.91068 | -78.59624 | 22126 ft | 424 kts | 47° |
| 2026-04-28 20:01 | 9.93080 | -78.57423 | 22479 ft | 427 kts | 47° |
| 2026-04-28 20:01 | 9.95109 | -78.55203 | 22835 ft | 429 kts | 47° |
| 2026-04-28 20:02 | 9.97148 | -78.52972 | 23211 ft | 431 kts | 47° |
| 2026-04-28 20:02 | 9.99192 | -78.50735 | 23541 ft | 434 kts | 47° |
| 2026-04-28 20:02 | 10.01259 | -78.48472 | 23799 ft | 437 kts | 47° |
| 2026-04-28 20:02 | 10.03334 | -78.46200 | 24076 ft | 440 kts | 47° |
| 2026-04-28 20:03 | 10.05418 | -78.43918 | 24382 ft | 441 kts | 47° |
| 2026-04-28 20:03 | 10.07517 | -78.41619 | 24671 ft | 444 kts | 47° |
| 2026-04-28 20:03 | 10.09625 | -78.39310 | 24934 ft | 446 kts | 47° |
| 2026-04-28 20:03 | 10.11743 | -78.36989 | 25191 ft | 449 kts | 47° |
| 2026-04-28 20:04 | 10.13867 | -78.34661 | 25456 ft | 452 kts | 47° |
| 2026-04-28 20:04 | 10.16008 | -78.32314 | 25712 ft | 454 kts | 47° |
| 2026-04-28 20:04 | 10.18162 | -78.29953 | 25973 ft | 456 kts | 47° |
| 2026-04-28 20:04 | 10.18820 | -78.29231 | 26049 ft | 457 kts | 47° |
| 2026-04-28 20:05 | 10.19390 | -78.28606 | 26109 ft | 458 kts | 47° |
| 2026-04-28 20:05 | 10.21559 | -78.26227 | 26352 ft | 460 kts | 47° |
| 2026-04-28 20:05 | 10.23741 | -78.23833 | 26600 ft | 463 kts | 47° |
| 2026-04-28 20:06 | 10.25937 | -78.21423 | 26859 ft | 465 kts | 47° |
| 2026-04-28 20:06 | 10.28141 | -78.19004 | 27100 ft | 467 kts | 47° |
| 2026-04-28 20:06 | 10.30351 | -78.16578 | 27346 ft | 470 kts | 47° |
| 2026-04-28 20:06 | 10.32572 | -78.14140 | 27581 ft | 472 kts | 47° |
| 2026-04-28 20:07 | 10.34811 | -78.11681 | 27814 ft | 474 kts | 47° |
| 2026-04-28 20:07 | 10.36294 | -78.10052 | 27968 ft | 475 kts | 47° |
| 2026-04-28 20:07 | 10.39303 | -78.06746 | 28273 ft | 478 kts | 47° |
| 2026-04-28 20:07 | 10.41544 | -78.04283 | 28490 ft | 480 kts | 47° |
| 2026-04-28 20:08 | 10.43814 | -78.01787 | 28708 ft | 482 kts | 47° |
| 2026-04-28 20:08 | 10.46101 | -77.99273 | 28917 ft | 484 kts | 47° |
| 2026-04-28 20:08 | 10.48392 | -77.96753 | 29131 ft | 486 kts | 47° |
| 2026-04-28 20:08 | 10.50699 | -77.94216 | 29332 ft | 488 kts | 47° |
| 2026-04-28 20:09 | 10.53013 | -77.91670 | 29536 ft | 490 kts | 47° |
| 2026-04-28 20:09 | 10.55312 | -77.89139 | 29729 ft | 493 kts | 47° |
| 2026-04-28 20:09 | 10.57647 | -77.86569 | 29910 ft | 495 kts | 47° |
| 2026-04-28 20:10 | 10.59689 | -77.84320 | 30059 ft | 496 kts | 47° |
| 2026-04-28 20:10 | 10.62030 | -77.81743 | 30248 ft | 497 kts | 47° |
| 2026-04-28 20:10 | 10.64379 | -77.79155 | 30433 ft | 498 kts | 47° |
| 2026-04-28 20:11 | 10.66734 | -77.76560 | 30600 ft | 500 kts | 47° |
| 2026-04-28 20:11 | 10.69093 | -77.73960 | 30767 ft | 501 kts | 47° |
| 2026-04-28 20:11 | 10.71452 | -77.71360 | 30998 ft | 500 kts | 47° |
| 2026-04-28 20:11 | 10.73780 | -77.68792 | 31280 ft | 499 kts | 47° |
| 2026-04-28 20:12 | 10.76130 | -77.66201 | 31540 ft | 498 kts | 47° |
| 2026-04-28 20:12 | 10.78481 | -77.63607 | 31779 ft | 498 kts | 47° |
| 2026-04-28 20:12 | 10.80831 | -77.61013 | 31995 ft | 498 kts | 47° |
| 2026-04-28 20:12 | 10.82380 | -77.59303 | 32147 ft | 498 kts | 47° |
| 2026-04-28 20:13 | 10.85524 | -77.55832 | 32503 ft | 497 kts | 47° |
| 2026-04-28 20:13 | 10.87867 | -77.53245 | 32762 ft | 496 kts | 47° |
| 2026-04-28 20:13 | 10.90174 | -77.50696 | 32984 ft | 496 kts | 47° |
| 2026-04-28 20:13 | 10.92513 | -77.48110 | 33222 ft | 496 kts | 47° |
| 2026-04-28 20:14 | 10.94845 | -77.45533 | 33474 ft | 495 kts | 47° |
| 2026-04-28 20:14 | 10.97183 | -77.42949 | 33722 ft | 495 kts | 47° |
| 2026-04-28 20:14 | 10.99530 | -77.40365 | 33959 ft | 494 kts | 47° |
| 2026-04-28 20:15 | 11.01908 | -77.37813 | 34156 ft | 494 kts | 46° |
| 2026-04-28 20:15 | 11.04291 | -77.35292 | 34335 ft | 495 kts | 46° |
| 2026-04-28 20:15 | 11.06686 | -77.32770 | 34535 ft | 494 kts | 46° |
| 2026-04-28 20:16 | 11.09071 | -77.30255 | 34740 ft | 494 kts | 46° |
| 2026-04-28 20:16 | 11.11418 | -77.27772 | 34931 ft | 494 kts | 46° |
| 2026-04-28 20:16 | 11.13808 | -77.25236 | 35115 ft | 494 kts | 46° |
| 2026-04-28 20:16 | 11.16190 | -77.22704 | 35299 ft | 494 kts | 46° |
| 2026-04-28 20:17 | 11.18570 | -77.20170 | 35483 ft | 494 kts | 46° |
| 2026-04-28 20:17 | 11.20945 | -77.17641 | 35662 ft | 494 kts | 46° |
| 2026-04-28 20:17 | 11.23318 | -77.15115 | 35841 ft | 494 kts | 46° |
| 2026-04-28 20:17 | 11.25668 | -77.12612 | 36009 ft | 494 kts | 46° |
| 2026-04-28 20:18 | 11.28047 | -77.10077 | 36185 ft | 493 kts | 46° |
| 2026-04-28 20:18 | 11.29646 | -77.08374 | 36303 ft | 493 kts | 46° |
| 2026-04-28 20:18 | 11.32791 | -77.05023 | 36522 ft | 493 kts | 46° |
| 2026-04-28 20:18 | 11.35162 | -77.02495 | 36684 ft | 493 kts | 46° |
| 2026-04-28 20:19 | 11.37539 | -76.99962 | 36846 ft | 493 kts | 46° |
| 2026-04-28 20:19 | 11.42368 | -76.95006 | 36865 ft | 496 kts | 44° |
| 2026-04-28 20:20 | 11.46312 | -76.91083 | 36867 ft | 494 kts | 44° |
| 2026-04-28 20:21 | 11.51224 | -76.86196 | 36868 ft | 492 kts | 44° |
| 2026-04-28 20:21 | 11.56107 | -76.81294 | 36871 ft | 493 kts | 45° |
| 2026-04-28 20:22 | 11.60969 | -76.76393 | 36875 ft | 494 kts | 45° |
| 2026-04-28 20:22 | 11.65871 | -76.71449 | 36870 ft | 496 kts | 44° |
| 2026-04-28 20:23 | 11.70781 | -76.66496 | 36863 ft | 496 kts | 44° |
| 2026-04-28 20:23 | 11.75669 | -76.61564 | 36870 ft | 497 kts | 44° |
| 2026-04-28 20:24 | 11.80596 | -76.56590 | 36870 ft | 497 kts | 44° |
| 2026-04-28 20:24 | 11.85510 | -76.51627 | 36830 ft | 498 kts | 44° |
| 2026-04-28 20:25 | 11.88101 | -76.49009 | 36538 ft | 500 kts | 44° |
| 2026-04-28 20:25 | 11.90604 | -76.46479 | 36290 ft | 497 kts | 44° |
| 2026-04-28 20:25 | 11.93048 | -76.44008 | 36044 ft | 493 kts | 44° |
| 2026-04-28 20:26 | 11.95486 | -76.41542 | 35916 ft | 494 kts | 44° |
| 2026-04-28 20:26 | 12.00335 | -76.36637 | 35879 ft | 493 kts | 44° |
| 2026-04-28 20:27 | 12.05209 | -76.31703 | 35870 ft | 492 kts | 44° |
| 2026-04-28 20:27 | 12.10078 | -76.26771 | 35873 ft | 493 kts | 44° |
| 2026-04-28 20:28 | 12.14931 | -76.21852 | 35876 ft | 494 kts | 44° |
| 2026-04-28 20:28 | 12.19824 | -76.16891 | 35875 ft | 495 kts | 44° |
| 2026-04-28 20:29 | 12.24718 | -76.11924 | 35879 ft | 495 kts | 44° |
| 2026-04-28 20:29 | 12.29613 | -76.06958 | 35879 ft | 496 kts | 44° |
| 2026-04-28 20:30 | 12.33851 | -76.02659 | 35876 ft | 496 kts | 44° |
| 2026-04-28 20:31 | 12.38759 | -75.97678 | 35878 ft | 496 kts | 44° |
| 2026-04-28 20:31 | 12.43645 | -75.92715 | 35880 ft | 496 kts | 44° |
| 2026-04-28 20:32 | 12.48562 | -75.87717 | 35881 ft | 496 kts | 44° |
| 2026-04-28 20:32 | 12.53425 | -75.82771 | 35879 ft | 496 kts | 44° |
| 2026-04-28 20:33 | 12.58321 | -75.77789 | 35880 ft | 495 kts | 44° |
| 2026-04-28 20:33 | 12.63211 | -75.72810 | 35883 ft | 495 kts | 44° |
| 2026-04-28 20:34 | 12.68094 | -75.67835 | 35887 ft | 495 kts | 44° |
| 2026-04-28 20:34 | 12.72941 | -75.62893 | 35882 ft | 494 kts | 44° |
| 2026-04-28 20:35 | 12.73243 | -75.62586 | 35882 ft | 494 kts | 44° |
| 2026-04-28 20:35 | 12.78061 | -75.57672 | 35884 ft | 494 kts | 44° |
| 2026-04-28 20:36 | 12.82935 | -75.52696 | 35890 ft | 494 kts | 44° |
| 2026-04-28 20:36 | 12.87800 | -75.47728 | 35890 ft | 493 kts | 44° |
| 2026-04-28 20:37 | 12.92655 | -75.42766 | 35889 ft | 493 kts | 44° |
| 2026-04-28 20:37 | 12.97500 | -75.37815 | 35886 ft | 494 kts | 44° |
| 2026-04-28 20:38 | 13.02363 | -75.32843 | 35893 ft | 494 kts | 43° |
| 2026-04-28 20:38 | 13.07233 | -75.27860 | 35891 ft | 494 kts | 43° |
| 2026-04-28 20:39 | 13.12097 | -75.22878 | 35890 ft | 494 kts | 43° |
| 2026-04-28 20:39 | 13.16967 | -75.17887 | 35894 ft | 494 kts | 43° |
| 2026-04-28 20:40 | 13.22025 | -75.12700 | 35896 ft | 494 kts | 43° |
| 2026-04-28 20:41 | 13.26890 | -75.07709 | 35887 ft | 495 kts | 43° |
| 2026-04-28 20:41 | 13.31765 | -75.02704 | 35898 ft | 495 kts | 43° |
| 2026-04-28 20:42 | 13.35845 | -74.98513 | 35891 ft | 495 kts | 43° |
| 2026-04-28 20:42 | 13.40710 | -74.93512 | 35904 ft | 495 kts | 43° |
| 2026-04-28 20:43 | 13.45577 | -74.88507 | 35906 ft | 495 kts | 43° |
| 2026-04-28 20:43 | 13.50420 | -74.83523 | 35898 ft | 495 kts | 43° |
| 2026-04-28 20:44 | 13.55285 | -74.78514 | 35909 ft | 495 kts | 43° |
| 2026-04-28 20:44 | 13.60161 | -74.73490 | 35906 ft | 495 kts | 43° |
| 2026-04-28 20:45 | 13.60982 | -74.72644 | 35907 ft | 495 kts | 43° |
| 2026-04-28 20:45 | 13.65106 | -74.68392 | 35907 ft | 495 kts | 43° |
| 2026-04-28 20:46 | 13.69969 | -74.63376 | 35906 ft | 495 kts | 43° |
| 2026-04-28 20:46 | 13.74800 | -74.58388 | 35909 ft | 495 kts | 43° |
| 2026-04-28 20:47 | 13.79672 | -74.53356 | 35907 ft | 495 kts | 43° |
| 2026-04-28 20:47 | 13.84535 | -74.48330 | 35911 ft | 495 kts | 43° |
| 2026-04-28 20:48 | 13.89399 | -74.43300 | 35910 ft | 495 kts | 43° |
| 2026-04-28 20:48 | 13.94259 | -74.38270 | 35915 ft | 496 kts | 43° |
| 2026-04-28 20:49 | 13.99100 | -74.33257 | 35914 ft | 496 kts | 43° |
| 2026-04-28 20:49 | 14.03967 | -74.28213 | 35914 ft | 496 kts | 43° |
| 2026-04-28 20:50 | 14.04797 | -74.27353 | 35919 ft | 496 kts | 43° |
| 2026-04-28 20:50 | 14.09288 | -74.22695 | 35912 ft | 496 kts | 43° |
| 2026-04-28 20:51 | 14.14157 | -74.17642 | 35915 ft | 496 kts | 43° |
| 2026-04-28 20:51 | 14.19021 | -74.12599 | 35917 ft | 496 kts | 43° |
| 2026-04-28 20:52 | 14.23865 | -74.07593 | 35921 ft | 496 kts | 43° |
| 2026-04-28 20:52 | 14.28744 | -74.02546 | 35920 ft | 497 kts | 43° |
| 2026-04-28 20:53 | 14.36065 | -73.94977 | 35922 ft | 497 kts | 43° |
| 2026-04-28 20:53 | 14.40959 | -73.89926 | 35919 ft | 497 kts | 43° |
| 2026-04-28 20:54 | 14.45813 | -73.84910 | 35921 ft | 497 kts | 43° |
| 2026-04-28 20:54 | 14.48251 | -73.82388 | 35926 ft | 497 kts | 43° |
| 2026-04-28 20:55 | 14.50394 | -73.80171 | 35922 ft | 497 kts | 43° |
| 2026-04-28 20:55 | 14.55281 | -73.75111 | 35926 ft | 497 kts | 43° |
| 2026-04-28 20:56 | 14.60168 | -73.70049 | 35927 ft | 496 kts | 43° |
| 2026-04-28 20:56 | 14.65042 | -73.64996 | 35927 ft | 496 kts | 43° |
| 2026-04-28 20:57 | 14.69875 | -73.59983 | 35930 ft | 496 kts | 43° |
| 2026-04-28 20:57 | 14.74784 | -73.54888 | 35930 ft | 496 kts | 43° |
| 2026-04-28 20:58 | 14.79618 | -73.49866 | 35930 ft | 496 kts | 43° |
| 2026-04-28 20:58 | 14.84490 | -73.44801 | 35930 ft | 496 kts | 43° |
| 2026-04-28 20:59 | 14.89394 | -73.39790 | 35933 ft | 495 kts | 40° |
| 2026-04-28 20:59 | 14.91913 | -73.37364 | 35936 ft | 495 kts | 40° |
| 2026-04-28 21:00 | 14.94229 | -73.35163 | 35932 ft | 495 kts | 40° |
| 2026-04-28 21:00 | 14.99283 | -73.30335 | 35933 ft | 495 kts | 40° |
| 2026-04-28 21:01 | 15.04281 | -73.25500 | 35937 ft | 495 kts | 40° |
| 2026-04-28 21:01 | 15.09294 | -73.20628 | 35936 ft | 495 kts | 41° |
| 2026-04-28 21:02 | 15.14216 | -73.15629 | 35938 ft | 495 kts | 42° |
| 2026-04-28 21:02 | 15.19091 | -73.10599 | 35936 ft | 495 kts | 42° |
| 2026-04-28 21:03 | 15.23994 | -73.05567 | 35941 ft | 495 kts | 42° |
| 2026-04-28 21:03 | 15.28898 | -73.00551 | 35939 ft | 495 kts | 42° |
| 2026-04-28 21:04 | 15.33807 | -72.95525 | 35940 ft | 496 kts | 42° |
| 2026-04-28 21:04 | 15.36264 | -72.93008 | 35940 ft | 496 kts | 42° |
| 2026-04-28 21:05 | 15.38510 | -72.90703 | 35936 ft | 496 kts | 42° |
| 2026-04-28 21:05 | 15.43413 | -72.85666 | 35948 ft | 496 kts | 42° |
| 2026-04-28 21:06 | 15.48320 | -72.80618 | 35947 ft | 496 kts | 42° |
| 2026-04-28 21:06 | 15.53231 | -72.75564 | 35946 ft | 497 kts | 42° |
| 2026-04-28 21:07 | 15.58111 | -72.70538 | 35947 ft | 497 kts | 42° |
| 2026-04-28 21:07 | 15.63020 | -72.65478 | 35945 ft | 497 kts | 42° |
| 2026-04-28 21:08 | 15.67925 | -72.60419 | 35949 ft | 497 kts | 42° |
| 2026-04-28 21:08 | 15.72828 | -72.55359 | 35951 ft | 497 kts | 42° |
| 2026-04-28 21:09 | 15.77733 | -72.50292 | 35950 ft | 497 kts | 42° |
| 2026-04-28 21:09 | 15.80184 | -72.47759 | 35954 ft | 497 kts | 42° |
| 2026-04-28 21:10 | 15.82517 | -72.45347 | 35954 ft | 497 kts | 42° |
| 2026-04-28 21:10 | 15.87426 | -72.40268 | 35951 ft | 497 kts | 42° |
| 2026-04-28 21:11 | 15.92316 | -72.35206 | 35953 ft | 496 kts | 42° |
| 2026-04-28 21:11 | 15.97214 | -72.30132 | 35952 ft | 496 kts | 42° |
| 2026-04-28 21:12 | 16.02079 | -72.25094 | 35955 ft | 496 kts | 42° |
| 2026-04-28 21:12 | 16.06946 | -72.20056 | 35957 ft | 496 kts | 42° |
| 2026-04-28 21:13 | 16.11846 | -72.14979 | 35961 ft | 496 kts | 42° |
| 2026-04-28 21:13 | 16.16729 | -72.09913 | 35960 ft | 496 kts | 42° |
| 2026-04-28 21:14 | 16.21614 | -72.04842 | 35959 ft | 496 kts | 42° |
| 2026-04-28 21:14 | 16.24061 | -72.02300 | 35962 ft | 496 kts | 42° |
| 2026-04-28 21:15 | 16.24809 | -72.01523 | 35962 ft | 496 kts | 42° |
| 2026-04-28 21:15 | 16.29670 | -71.96470 | 35962 ft | 496 kts | 42° |
| 2026-04-28 21:16 | 16.34548 | -71.91396 | 35960 ft | 496 kts | 42° |
| 2026-04-28 21:16 | 16.39426 | -71.86318 | 35967 ft | 496 kts | 42° |
| 2026-04-28 21:17 | 16.44313 | -71.81226 | 35967 ft | 496 kts | 42° |
| 2026-04-28 21:17 | 16.49161 | -71.76171 | 35962 ft | 496 kts | 42° |
| 2026-04-28 21:18 | 16.54068 | -71.71051 | 35964 ft | 496 kts | 42° |
| 2026-04-28 21:18 | 16.58607 | -71.65696 | 35973 ft | 498 kts | 54° |
| 2026-04-28 21:19 | 16.62360 | -71.59598 | 35971 ft | 499 kts | 57° |
| 2026-04-28 21:19 | 16.64180 | -71.56504 | 35969 ft | 499 kts | 57° |
| 2026-04-28 21:20 | 16.65882 | -71.53630 | 35965 ft | 500 kts | 57° |
| 2026-04-28 21:20 | 16.69597 | -71.47481 | 35971 ft | 500 kts | 56° |
| 2026-04-28 21:21 | 16.73356 | -71.41378 | 35971 ft | 500 kts | 56° |
| 2026-04-28 21:21 | 16.77128 | -71.35285 | 35971 ft | 500 kts | 56° |
| 2026-04-28 21:22 | 16.80902 | -71.29178 | 35973 ft | 500 kts | 56° |
| 2026-04-28 21:22 | 16.84028 | -71.24110 | 35975 ft | 500 kts | 56° |
| 2026-04-28 21:23 | 16.88406 | -71.17003 | 35976 ft | 500 kts | 56° |
| 2026-04-28 21:23 | 16.92174 | -71.10881 | 35973 ft | 500 kts | 56° |
| 2026-04-28 21:24 | 16.95936 | -71.04762 | 35977 ft | 500 kts | 56° |
| 2026-04-28 21:24 | 16.97813 | -71.01707 | 35975 ft | 500 kts | 56° |
| 2026-04-28 21:25 | 16.98804 | -71.00094 | 35971 ft | 500 kts | 56° |
| 2026-04-28 21:25 | 17.02561 | -70.93974 | 35975 ft | 500 kts | 56° |
| 2026-04-28 21:26 | 17.06312 | -70.87858 | 35976 ft | 500 kts | 56° |
| 2026-04-28 21:26 | 17.10063 | -70.81738 | 35978 ft | 499 kts | 56° |
| 2026-04-28 21:27 | 17.13785 | -70.75659 | 35983 ft | 499 kts | 56° |
| 2026-04-28 21:27 | 17.17533 | -70.69533 | 35980 ft | 499 kts | 56° |
| 2026-04-28 21:28 | 17.19413 | -70.66457 | 35813 ft | 502 kts | 56° |
| 2026-04-28 21:28 | 17.21304 | -70.63364 | 35323 ft | 505 kts | 56° |
| 2026-04-28 21:28 | 17.23183 | -70.60287 | 34924 ft | 500 kts | 56° |
| 2026-04-28 21:28 | 17.24417 | -70.58265 | 34645 ft | 498 kts | 56° |
| 2026-04-28 21:29 | 17.26275 | -70.55221 | 34218 ft | 494 kts | 57° |
| 2026-04-28 21:29 | 17.28122 | -70.52192 | 33760 ft | 492 kts | 57° |
| 2026-04-28 21:29 | 17.29959 | -70.49179 | 33306 ft | 489 kts | 57° |
| 2026-04-28 21:29 | 17.30574 | -70.48171 | 33149 ft | 488 kts | 57° |
| 2026-04-28 21:30 | 17.31142 | -70.47239 | 33011 ft | 487 kts | 57° |
| 2026-04-28 21:30 | 17.32960 | -70.44255 | 32586 ft | 483 kts | 57° |
| 2026-04-28 21:30 | 17.34756 | -70.41305 | 32169 ft | 480 kts | 57° |
| 2026-04-28 21:31 | 17.36548 | -70.38362 | 31758 ft | 477 kts | 57° |
| 2026-04-28 21:31 | 17.38322 | -70.35447 | 31350 ft | 474 kts | 57° |
| 2026-04-28 21:31 | 17.40091 | -70.32539 | 30939 ft | 471 kts | 57° |
| 2026-04-28 21:31 | 17.41855 | -70.29638 | 30514 ft | 469 kts | 57° |
| 2026-04-28 21:32 | 17.43602 | -70.26764 | 30109 ft | 467 kts | 57° |
| 2026-04-28 21:32 | 17.45344 | -70.23896 | 29631 ft | 465 kts | 57° |
| 2026-04-28 21:32 | 17.47072 | -70.21051 | 29193 ft | 461 kts | 57° |
| 2026-04-28 21:32 | 17.48764 | -70.18262 | 28765 ft | 458 kts | 57° |
| 2026-04-28 21:33 | 17.50468 | -70.15454 | 28342 ft | 454 kts | 57° |
| 2026-04-28 21:33 | 17.52152 | -70.12677 | 27932 ft | 450 kts | 57° |
| 2026-04-28 21:33 | 17.53828 | -70.09913 | 27521 ft | 447 kts | 57° |
| 2026-04-28 21:33 | 17.55489 | -70.07171 | 27114 ft | 444 kts | 57° |
| 2026-04-28 21:34 | 17.57136 | -70.04452 | 26711 ft | 440 kts | 57° |
| 2026-04-28 21:34 | 17.58774 | -70.01746 | 26304 ft | 437 kts | 57° |
| 2026-04-28 21:34 | 17.60397 | -69.99065 | 25908 ft | 435 kts | 57° |
| 2026-04-28 21:34 | 17.60940 | -69.98167 | 25774 ft | 434 kts | 57° |
| 2026-04-28 21:35 | 17.60964 | -69.98128 | 25772 ft | 434 kts | 57° |
| 2026-04-28 21:35 | 17.62597 | -69.95429 | 25361 ft | 431 kts | 57° |
| 2026-04-28 21:35 | 17.64200 | -69.92778 | 24957 ft | 429 kts | 57° |
| 2026-04-28 21:36 | 17.65789 | -69.90149 | 24546 ft | 427 kts | 57° |
| 2026-04-28 21:36 | 17.67354 | -69.87558 | 24155 ft | 424 kts | 57° |
| 2026-04-28 21:36 | 17.68929 | -69.84951 | 23752 ft | 422 kts | 57° |
| 2026-04-28 21:36 | 17.70497 | -69.82353 | 23317 ft | 420 kts | 57° |
| 2026-04-28 21:37 | 17.72052 | -69.79777 | 22882 ft | 414 kts | 57° |
| 2026-04-28 21:37 | 17.73571 | -69.77257 | 22462 ft | 404 kts | 57° |
| 2026-04-28 21:37 | 17.75054 | -69.74797 | 22082 ft | 393 kts | 57° |
| 2026-04-28 21:37 | 17.76494 | -69.72407 | 21713 ft | 383 kts | 57° |
| 2026-04-28 21:38 | 17.77910 | -69.70059 | 21368 ft | 379 kts | 57° |
| 2026-04-28 21:38 | 17.79314 | -69.67727 | 21018 ft | 377 kts | 57° |
| 2026-04-28 21:38 | 17.80656 | -69.65499 | 20680 ft | 375 kts | 57° |
| 2026-04-28 21:38 | 17.82076 | -69.63140 | 20316 ft | 373 kts | 57° |
| 2026-04-28 21:39 | 17.83456 | -69.60847 | 19964 ft | 371 kts | 57° |
| 2026-04-28 21:39 | 17.84832 | -69.58560 | 19605 ft | 369 kts | 57° |
| 2026-04-28 21:39 | 17.86200 | -69.56285 | 19266 ft | 367 kts | 57° |
| 2026-04-28 21:39 | 17.86619 | -69.55588 | 19158 ft | 367 kts | 57° |
| 2026-04-28 21:40 | 17.87504 | -69.54116 | 18933 ft | 366 kts | 57° |
| 2026-04-28 21:40 | 17.88823 | -69.51921 | 18580 ft | 364 kts | 57° |
| 2026-04-28 21:40 | 17.90174 | -69.49672 | 18230 ft | 363 kts | 57° |
| 2026-04-28 21:41 | 17.91519 | -69.47432 | 17828 ft | 361 kts | 57° |
| 2026-04-28 21:41 | 17.92853 | -69.45209 | 17453 ft | 358 kts | 57° |
| 2026-04-28 21:41 | 17.94177 | -69.43004 | 17091 ft | 356 kts | 57° |
| 2026-04-28 21:41 | 17.95491 | -69.40813 | 16733 ft | 354 kts | 57° |
| 2026-04-28 21:42 | 17.96799 | -69.38632 | 16383 ft | 351 kts | 57° |
| 2026-04-28 21:42 | 17.98094 | -69.36472 | 16039 ft | 349 kts | 57° |
| 2026-04-28 21:42 | 17.99383 | -69.34320 | 15705 ft | 346 kts | 57° |
| 2026-04-28 21:42 | 18.00664 | -69.32183 | 15366 ft | 344 kts | 57° |
| 2026-04-28 21:43 | 18.01932 | -69.30065 | 15036 ft | 342 kts | 57° |
| 2026-04-28 21:43 | 18.03193 | -69.27958 | 14704 ft | 340 kts | 57° |
| 2026-04-28 21:43 | 18.04450 | -69.25857 | 14364 ft | 338 kts | 57° |
| 2026-04-28 21:43 | 18.05683 | -69.23797 | 14056 ft | 336 kts | 58° |
| 2026-04-28 21:44 | 18.06925 | -69.21720 | 13718 ft | 335 kts | 58° |
| 2026-04-28 21:44 | 18.08164 | -69.19648 | 13347 ft | 333 kts | 58° |
| 2026-04-28 21:44 | 18.09392 | -69.17593 | 13001 ft | 331 kts | 58° |
| 2026-04-28 21:45 | 18.09833 | -69.16856 | 12877 ft | 330 kts | 58° |
| 2026-04-28 21:45 | 18.11075 | -69.14775 | 12541 ft | 328 kts | 58° |
| 2026-04-28 21:45 | 18.12277 | -69.12762 | 12335 ft | 321 kts | 58° |
| 2026-04-28 21:46 | 18.13445 | -69.10806 | 12211 ft | 312 kts | 58° |
| 2026-04-28 21:46 | 18.14580 | -69.08905 | 12081 ft | 304 kts | 58° |
| 2026-04-28 21:46 | 18.15691 | -69.07043 | 11962 ft | 295 kts | 58° |
| 2026-04-28 21:46 | 18.16766 | -69.05242 | 11805 ft | 289 kts | 58° |
| 2026-04-28 21:47 | 18.17833 | -69.03455 | 11554 ft | 287 kts | 58° |
| 2026-04-28 21:47 | 18.18876 | -69.01709 | 11311 ft | 285 kts | 58° |
| 2026-04-28 21:47 | 18.19925 | -68.99951 | 11085 ft | 282 kts | 58° |
| 2026-04-28 21:47 | 18.20965 | -68.98208 | 10853 ft | 281 kts | 58° |
| 2026-04-28 21:48 | 18.21999 | -68.96475 | 10619 ft | 280 kts | 58° |
| 2026-04-28 21:48 | 18.23031 | -68.94744 | 10390 ft | 278 kts | 58° |
| 2026-04-28 21:48 | 18.24059 | -68.93020 | 10163 ft | 277 kts | 58° |
| 2026-04-28 21:48 | 18.25071 | -68.91321 | 10000 ft | 271 kts | 58° |
| 2026-04-28 21:49 | 18.26068 | -68.89647 | 9755 ft | 270 kts | 58° |
| 2026-04-28 21:49 | 18.27068 | -68.87967 | 9485 ft | 269 kts | 58° |
| 2026-04-28 21:49 | 18.28061 | -68.86300 | 9214 ft | 268 kts | 58° |
| 2026-04-28 21:50 | 18.29022 | -68.84687 | 9100 ft | 261 kts | 58° |
| 2026-04-28 21:50 | 18.29974 | -68.83087 | 8927 ft | 256 kts | 58° |
| 2026-04-28 21:50 | 18.30919 | -68.81499 | 8679 ft | 255 kts | 58° |
| 2026-04-28 21:51 | 18.31859 | -68.79917 | 8428 ft | 253 kts | 58° |
| 2026-04-28 21:51 | 18.32780 | -68.78350 | 8197 ft | 251 kts | 58° |
| 2026-04-28 21:51 | 18.33697 | -68.76786 | 7946 ft | 250 kts | 58° |
| 2026-04-28 21:51 | 18.34606 | -68.75233 | 7697 ft | 249 kts | 58° |
| 2026-04-28 21:52 | 18.35515 | -68.73682 | 7444 ft | 248 kts | 59° |
| 2026-04-28 21:52 | 18.36418 | -68.72139 | 7185 ft | 248 kts | 58° |
| 2026-04-28 21:52 | 18.37310 | -68.70615 | 6938 ft | 247 kts | 59° |
| 2026-04-28 21:52 | 18.38213 | -68.69073 | 6678 ft | 247 kts | 59° |
| 2026-04-28 21:53 | 18.39100 | -68.67559 | 6425 ft | 247 kts | 59° |
| 2026-04-28 21:53 | 18.40001 | -68.66019 | 6149 ft | 247 kts | 59° |
| 2026-04-28 21:53 | 18.40902 | -68.64478 | 5880 ft | 247 kts | 59° |
| 2026-04-28 21:53 | 18.41803 | -68.62939 | 5613 ft | 246 kts | 59° |
| 2026-04-28 21:54 | 18.42702 | -68.61402 | 5354 ft | 246 kts | 59° |
| 2026-04-28 21:54 | 18.43598 | -68.59870 | 5095 ft | 246 kts | 59° |
| 2026-04-28 21:54 | 18.44498 | -68.58331 | 4825 ft | 246 kts | 59° |
| 2026-04-28 21:54 | 18.45387 | -68.56810 | 4541 ft | 241 kts | 59° |
| 2026-04-28 21:55 | 18.46386 | -68.55425 | 4251 ft | 236 kts | 39° |
| 2026-04-28 21:55 | 18.47841 | -68.54708 | 4030 ft | 231 kts | 12° |
| 2026-04-28 21:55 | 18.49422 | -68.54649 | 3780 ft | 225 kts | 358° |
| 2026-04-28 21:55 | 18.50972 | -68.54794 | 3539 ft | 222 kts | 356° |
| 2026-04-28 21:56 | 18.52492 | -68.54956 | 3326 ft | 223 kts | 356° |
| 2026-04-28 21:56 | 18.54003 | -68.54735 | 3041 ft | 220 kts | 32° |
| 2026-04-28 21:56 | 18.54978 | -68.53567 | 2821 ft | 214 kts | 69° |
| 2026-04-28 21:56 | 18.55337 | -68.52050 | 2626 ft | 215 kts | 80° |
| 2026-04-28 21:57 | 18.55525 | -68.50481 | 2418 ft | 217 kts | 83° |
| 2026-04-28 21:57 | 18.55657 | -68.48934 | 2146 ft | 207 kts | 84° |
| 2026-04-28 21:57 | 18.55780 | -68.47442 | 1896 ft | 200 kts | 83° |
| 2026-04-28 21:57 | 18.55901 | -68.46013 | 1642 ft | 193 kts | 84° |
| 2026-04-28 21:58 | 18.56019 | -68.44631 | 1389 ft | 183 kts | 83° |
| 2026-04-28 21:58 | 18.56143 | -68.43334 | 1140 ft | 172 kts | 84° |
| 2026-04-28 21:58 | 18.56233 | -68.42176 | 925 ft | 158 kts | 83° |
| 2026-04-28 21:58 | 18.56326 | -68.41071 | 739 ft | 148 kts | 82° |
| 2026-04-28 21:59 | 18.56425 | -68.39962 | 514 ft | 156 kts | 84° |
| 2026-04-28 21:59 | 18.56526 | -68.38821 | 292 ft | 156 kts | 85° |
| 2026-04-28 21:59 | 18.56623 | -68.37687 | 89 ft | 152 kts | 84° |
| 2026-04-28 22:00 | 18.56766 | -68.36078 | 47 ft | 53 kts | 84° |
| 2026-04-28 22:00 | 18.56778 | -68.35847 | 47 ft | 22 kts | 97° |
| 2026-04-28 22:00 | 18.56689 | -68.35786 | 48 ft | 15 kts | 174° |
| 2026-04-28 22:00 | 18.56573 | -68.35776 | 49 ft | 19 kts | 178° |
| 2026-04-28 22:01 | 18.56509 | -68.35856 | 49 ft | 16 kts | 263° |
| 2026-04-28 22:01 | 18.56500 | -68.35962 | 49 ft | 14 kts | 264° |
| 2026-04-28 22:01 | 18.56489 | -68.36079 | 49 ft | 16 kts | 265° |
| 2026-04-28 22:01 | 18.56478 | -68.36211 | 49 ft | 20 kts | 264° |
| 2026-04-28 22:02 | 18.56465 | -68.36359 | 49 ft | 18 kts | 265° |
| 2026-04-28 22:02 | 18.56455 | -68.36480 | 49 ft | 18 kts | 265° |
| 2026-04-28 22:02 | 18.56483 | -68.36618 | 49 ft | 20 kts | 308° |
| 2026-04-28 22:02 | 18.56524 | -68.36721 | 50 ft | 12 kts | 264° |
| 2026-04-28 22:03 | 18.56498 | -68.36750 | 49 ft | 4 kts | 189° |
| 2026-04-28 22:03 | 18.56458 | -68.36747 | 49 ft | 9 kts | 179° |
| 2026-04-28 22:03 | 18.56378 | -68.36753 | 49 ft | 10 kts | 207° |
| 2026-04-28 22:03 | 18.56372 | -68.36763 | 49 ft | 2 kts | 248° |
| 2026-04-28 22:04 | 18.56368 | -68.36786 | 49 ft | 3 kts | 262° |
| 2026-04-28 22:04 | 18.56366 | -68.36800 | 49 ft | 1 kts | 263° |
| 2026-04-28 22:04 | 18.56366 | -68.36802 | 49 ft | 0 kts | 264° |